Time;durP1;ratioP1;P1;durP2;ratioP2;P2;SDS_P1;SDS_P2;PMS_P1;PMS_P2;Temp;Humidity;BMP_temperature;BMP_pressure;BME280_temperature;BME280_humidity;BME280_pressure;Samples;Min_cycle;Max_cycle;Signal;HPM_P1;HPM_P2
2021/06/15 00:01:13;;;;;;;;;;;14.40;99.90;;;;;;4968829;28;19936;-64
2021/06/15 00:04:03;;;;;;;;;;;14.30;99.90;;;;;;4975385;28;20080;-64
2021/06/15 00:06:51;;;;;;;;;;;14.30;99.90;;;;;;4974971;28;20845;-64
2021/06/15 00:09:40;;;;;;;;;;;14.30;99.90;;;;;;4973244;28;19965;-64
2021/06/15 00:12:29;;;;;;;;;;;14.20;99.90;;;;;;4972157;28;20426;-64
2021/06/15 00:15:18;;;;;;;;;;;14.20;99.90;;;;;;4968251;28;19941;-63
2021/06/15 00:18:07;;;;;;;;;;;14.20;99.90;;;;;;4975481;28;19997;-64
2021/06/15 00:20:57;;;;;;;;;;;14.20;99.90;;;;;;4970703;28;19932;-64
2021/06/15 00:23:45;;;;;;;;;;;14.20;99.90;;;;;;4973091;28;20371;-63
2021/06/15 00:26:34;;;;;;;;;;;14.10;99.90;;;;;;4975770;28;20009;-64
2021/06/15 00:29:22;;;;;;;;;;;14.10;99.90;;;;;;4973002;28;19969;-64
2021/06/15 00:32:11;;;;;;;;;;;14.10;99.90;;;;;;4967689;28;20025;-64
2021/06/15 00:35:00;;;;;;;;;;;14.00;99.90;;;;;;4971732;28;19932;-65
2021/06/15 00:37:50;;;;;;;;;;;14.00;99.90;;;;;;4974649;28;19926;-65
2021/06/15 00:40:39;;;;;;;;;;;13.90;99.90;;;;;;4957351;28;20427;-64
2021/06/15 00:43:28;;;;;;;;;;;13.90;99.90;;;;;;4973836;28;19930;-65
2021/06/15 00:46:16;;;;;;;;;;;13.80;99.90;;;;;;4968800;28;20386;-64
2021/06/15 00:49:07;;;;;;;;;;;13.80;99.90;;;;;;4971920;28;20394;-64
2021/06/15 00:51:56;;;;;;;;;;;13.80;99.90;;;;;;4974239;28;19933;-64
2021/06/15 00:54:47;;;;;;;;;;;13.80;99.90;;;;;;4958738;28;20045;-64
2021/06/15 00:57:36;;;;;;;;;;;13.70;99.90;;;;;;4972677;28;19926;-64
2021/06/15 01:00:24;;;;;;;;;;;13.70;99.90;;;;;;4966299;28;20306;-64
2021/06/15 01:03:16;;;;;;;;;;;13.70;99.90;;;;;;4959399;28;19926;-64
2021/06/15 01:06:09;;;;;;;;;;;13.60;99.90;;;;;;4973263;28;20437;-64
2021/06/15 01:09:02;;;;;;;;;;;13.60;99.90;;;;;;4974203;28;19937;-67
2021/06/15 01:11:56;;;;;;;;;;;13.60;99.90;;;;;;4974073;28;19933;-64
2021/06/15 01:14:49;;;;;;;;;;;13.50;99.90;;;;;;4969851;28;20462;-63
2021/06/15 01:17:39;;;;;;;;;;;13.50;99.90;;;;;;4969157;28;19926;-64
2021/06/15 01:20:35;;;;;;;;;;;13.50;99.90;;;;;;4960282;28;19930;-64
2021/06/15 01:26:52;;;;;;;;;;;13.40;99.90;;;;;;4949527;28;20375;-64
2021/06/15 01:29:44;;;;;;;;;;;13.30;99.90;;;;;;4956231;28;19941;-64
2021/06/15 01:32:34;;;;;;;;;;;13.40;99.90;;;;;;4970814;28;19930;-64
2021/06/15 01:35:24;;;;;;;;;;;13.40;99.90;;;;;;4973449;28;19934;-64
2021/06/15 01:38:14;;;;;;;;;;;13.50;99.90;;;;;;4959553;28;20021;-63
2021/06/15 01:41:08;;;;;;;;;;;13.40;99.90;;;;;;4969421;28;19938;-64
2021/06/15 01:44:01;;;;;;;;;;;13.40;99.90;;;;;;4970584;28;19937;-64
2021/06/15 01:46:55;;;;;;;;;;;13.30;99.90;;;;;;4967306;28;19942;-65
2021/06/15 01:53:00;;;;;;;;;;;13.20;99.90;;;;;;4952730;28;20397;-65
2021/06/15 01:55:50;;;;;;;;;;;13.10;99.90;;;;;;4963715;28;19961;-65
2021/06/15 01:58:43;;;;;;;;;;;13.10;99.90;;;;;;4970240;28;19926;-64
2021/06/15 02:01:35;;;;;;;;;;;13.00;99.90;;;;;;4953041;28;19926;-65
2021/06/15 02:04:29;;;;;;;;;;;13.00;99.90;;;;;;4956756;28;20293;-65
2021/06/15 02:07:20;;;;;;;;;;;12.90;99.90;;;;;;4973494;28;19934;-64
2021/06/15 02:10:11;;;;;;;;;;;12.90;99.90;;;;;;4966617;28;20392;-64
2021/06/15 02:13:24;;;;;;;;;;;12.90;99.90;;;;;;4968009;28;19949;-64
2021/06/15 02:16:25;;;;;;;;;;;12.90;99.90;;;;;;4944460;28;19969;-64
2021/06/15 02:19:34;;;;;;;;;;;12.80;99.90;;;;;;4948770;28;19985;-65
2021/06/15 02:22:25;;;;;;;;;;;12.70;99.90;;;;;;4975463;28;20037;-65
2021/06/15 02:25:14;;;;;;;;;;;12.60;99.90;;;;;;4960628;28;19926;-64
2021/06/15 02:28:03;;;;;;;;;;;12.50;99.90;;;;;;4975385;28;20052;-64
2021/06/15 02:30:55;;;;;;;;;;;12.50;99.90;;;;;;4969107;28;19930;-65
2021/06/15 02:33:47;;;;;;;;;;;12.40;99.90;;;;;;4960280;28;19934;-64
2021/06/15 02:39:51;;;;;;;;;;;12.30;99.90;;;;;;4950916;28;20371;-66
2021/06/15 02:42:42;;;;;;;;;;;12.30;99.90;;;;;;4965264;28;20371;-66
2021/06/15 02:45:33;;;;;;;;;;;12.30;99.90;;;;;;4957441;28;19926;-66
2021/06/15 02:48:23;;;;;;;;;;;12.30;99.90;;;;;;4964120;28;20037;-65
2021/06/15 02:51:12;;;;;;;;;;;12.30;99.90;;;;;;4979191;28;20028;-64
2021/06/15 02:54:07;;;;;;;;;;;12.20;99.90;;;;;;4976733;28;19926;-64
2021/06/15 02:56:57;;;;;;;;;;;12.20;99.90;;;;;;4965093;28;20016;-65
2021/06/15 02:59:46;;;;;;;;;;;12.20;99.90;;;;;;4976595;28;19926;-64
2021/06/15 03:02:35;;;;;;;;;;;12.30;99.90;;;;;;4974955;28;19937;-64
2021/06/15 03:05:26;;;;;;;;;;;12.20;99.90;;;;;;4961582;28;19986;-66
2021/06/15 03:08:17;;;;;;;;;;;12.20;99.90;;;;;;4957247;28;19933;-64
2021/06/15 03:11:10;;;;;;;;;;;12.10;99.90;;;;;;4971847;28;20020;-64
2021/06/15 03:14:03;;;;;;;;;;;12.10;99.90;;;;;;4960226;28;19926;-65
2021/06/15 03:16:56;;;;;;;;;;;12.20;99.90;;;;;;4959244;28;19934;-64
2021/06/15 03:19:47;;;;;;;;;;;12.20;99.90;;;;;;4960343;28;19997;-64
2021/06/15 03:22:44;;;;;;;;;;;12.20;99.90;;;;;;4977367;28;19930;-63
2021/06/15 03:25:34;;;;;;;;;;;12.10;99.90;;;;;;4966354;28;20350;-65
2021/06/15 03:28:28;;;;;;;;;;;12.10;99.90;;;;;;4968223;28;19926;-67
2021/06/15 03:31:21;;;;;;;;;;;12.10;99.90;;;;;;4954774;28;19926;-63
2021/06/15 03:34:12;;;;;;;;;;;12.10;99.90;;;;;;4949834;28;19949;-64
2021/06/15 03:37:01;;;;;;;;;;;12.10;99.90;;;;;;4963048;28;19926;-64
2021/06/15 03:39:56;;;;;;;;;;;12.10;99.90;;;;;;4970015;28;19930;-64
2021/06/15 03:42:45;;;;;;;;;;;12.10;99.90;;;;;;4963540;28;19926;-63
2021/06/15 03:45:37;;;;;;;;;;;12.20;99.90;;;;;;4965802;28;19930;-64
2021/06/15 03:48:26;;;;;;;;;;;12.20;99.90;;;;;;4977425;28;19941;-64
2021/06/15 03:51:17;;;;;;;;;;;12.10;99.90;;;;;;4967371;28;19977;-64
2021/06/15 03:54:08;;;;;;;;;;;12.20;99.90;;;;;;4967720;28;20357;-64
2021/06/15 03:57:00;;;;;;;;;;;12.20;99.90;;;;;;4966938;28;19930;-64
2021/06/15 03:59:49;;;;;;;;;;;12.30;99.90;;;;;;4964741;28;19943;-64
2021/06/15 04:02:40;;;;;;;;;;;12.30;99.90;;;;;;4962831;28;20002;-64
2021/06/15 04:05:29;;;;;;;;;;;12.30;99.90;;;;;;4965837;28;20020;-65
2021/06/15 04:08:19;;;;;;;;;;;12.40;99.90;;;;;;4959532;28;19978;-63
2021/06/15 04:11:09;;;;;;;;;;;12.40;99.90;;;;;;4974490;28;20426;-63
2021/06/15 04:13:58;;;;;;;;;;;12.40;99.90;;;;;;4973561;28;19930;-64
2021/06/15 04:16:47;;;;;;;;;;;12.50;99.90;;;;;;4965915;28;19992;-64
2021/06/15 04:19:40;;;;;;;;;;;12.60;99.90;;;;;;4972318;28;20005;-64
2021/06/15 04:22:31;;;;;;;;;;;12.70;99.90;;;;;;4967541;28;19934;-63
2021/06/15 04:25:21;;;;;;;;;;;12.80;99.90;;;;;;4962044;28;19927;-64
2021/06/15 04:28:11;;;;;;;;;;;12.90;99.90;;;;;;4953548;28;19933;-64
2021/06/15 04:31:00;;;;;;;;;;;13.10;99.90;;;;;;4961111;28;19934;-64
2021/06/15 04:33:50;;;;;;;;;;;13.30;99.90;;;;;;4972187;28;20348;-64
2021/06/15 04:39:58;;;;;;;;;;;13.60;99.90;;;;;;4971752;28;19934;-65
2021/06/15 04:42:58;;;;;;;;;;;13.70;99.90;;;;;;4957081;28;20367;-64
2021/06/15 04:45:48;;;;;;;;;;;13.80;99.90;;;;;;4966701;28;20486;-64
2021/06/15 04:48:38;;;;;;;;;;;13.90;99.90;;;;;;4971968;28;19930;-64
2021/06/15 04:51:28;;;;;;;;;;;14.00;99.90;;;;;;4977082;28;20036;-67
2021/06/15 04:54:21;;;;;;;;;;;14.00;99.90;;;;;;4971735;28;20385;-64
2021/06/15 04:57:10;;;;;;;;;;;14.10;99.90;;;;;;4972444;28;20008;-64
2021/06/15 05:00:01;;;;;;;;;;;14.20;99.90;;;;;;4960684;28;20547;-64
2021/06/15 05:02:51;;;;;;;;;;;14.40;99.90;;;;;;4970499;28;20021;-64
2021/06/15 05:05:39;;;;;;;;;;;14.60;99.90;;;;;;4973456;28;19927;-64
2021/06/15 05:08:28;;;;;;;;;;;14.70;99.90;;;;;;4973994;28;19942;-64
2021/06/15 05:11:21;;;;;;;;;;;14.90;99.90;;;;;;4976987;28;19937;-64
2021/06/15 05:14:12;;;;;;;;;;;15.10;99.90;;;;;;4972716;28;19934;-64
2021/06/15 05:17:01;;;;;;;;;;;15.30;99.90;;;;;;4967627;28;19936;-64
2021/06/15 05:19:51;;;;;;;;;;;15.50;99.90;;;;;;4974891;28;19966;-64
2021/06/15 05:23:04;;;;;;;;;;;15.70;99.90;;;;;;4969249;28;19926;-64
2021/06/15 05:25:53;;;;;;;;;;;15.80;99.90;;;;;;4973693;28;19927;-64
2021/06/15 05:28:44;;;;;;;;;;;16.00;99.90;;;;;;4975716;28;20461;-65
2021/06/15 05:31:32;;;;;;;;;;;16.20;99.90;;;;;;4967327;28;19926;-64
2021/06/15 05:34:21;;;;;;;;;;;16.50;99.90;;;;;;4949065;28;19932;-64
2021/06/15 05:37:10;;;;;;;;;;;16.70;99.90;;;;;;4967456;28;19926;-65
2021/06/15 05:39:59;;;;;;;;;;;16.80;99.90;;;;;;4970618;28;19930;-65
2021/06/15 05:42:48;;;;;;;;;;;16.90;99.90;;;;;;4982355;28;19926;-65
2021/06/15 05:45:38;;;;;;;;;;;17.00;99.90;;;;;;4970719;28;19931;-64
2021/06/15 05:48:28;;;;;;;;;;;17.20;99.90;;;;;;4979573;28;20027;-65
2021/06/15 05:51:16;;;;;;;;;;;17.50;99.90;;;;;;4982538;28;19930;-65
2021/06/15 05:54:05;;;;;;;;;;;17.60;99.90;;;;;;4980855;28;19930;-65
2021/06/15 05:56:54;;;;;;;;;;;17.70;99.90;;;;;;4984737;28;19925;-65
2021/06/15 05:59:42;;;;;;;;;;;18.00;99.90;;;;;;4977096;28;20236;-64
2021/06/15 06:02:32;;;;;;;;;;;18.20;99.90;;;;;;4976325;28;19937;-64
2021/06/15 06:08:27;;;;;;;;;;;18.80;99.90;;;;;;4982061;28;20015;-64
2021/06/15 06:11:16;;;;;;;;;;;19.00;99.90;;;;;;4980425;28;19933;-65
2021/06/15 06:14:05;;;;;;;;;;;19.30;99.90;;;;;;4980628;28;19933;-64
2021/06/15 06:16:54;;;;;;;;;;;19.40;99.90;;;;;;4973166;28;19930;-64
2021/06/15 06:19:45;;;;;;;;;;;19.70;99.90;;;;;;4975475;28;20355;-65
2021/06/15 06:22:33;;;;;;;;;;;19.80;99.90;;;;;;4989730;28;19926;-65
2021/06/15 06:25:22;;;;;;;;;;;19.90;99.90;;;;;;4990760;28;19961;-64
2021/06/15 06:28:11;;;;;;;;;;;20.00;99.90;;;;;;4976056;28;19930;-64
2021/06/15 06:30:59;;;;;;;;;;;19.90;99.90;;;;;;4977658;28;20019;-64
2021/06/15 06:33:48;;;;;;;;;;;20.10;99.90;;;;;;4973001;28;19926;-64
2021/06/15 06:36:38;;;;;;;;;;;20.50;99.90;;;;;;4977486;28;19934;-64
2021/06/15 06:39:26;;;;;;;;;;;20.70;99.90;;;;;;4985029;28;20004;-65
2021/06/15 06:42:18;;;;;;;;;;;20.90;99.90;;;;;;4988573;28;19933;-65
2021/06/15 06:45:08;;;;;;;;;;;21.00;99.90;;;;;;4970407;28;19954;-65
2021/06/15 06:47:59;;;;;;;;;;;21.40;99.90;;;;;;4985943;28;19914;-64
2021/06/15 06:51:13;;;;;;;;;;;21.50;99.50;;;;;;4983546;28;19930;-65
2021/06/15 06:54:02;;;;;;;;;;;22.20;98.30;;;;;;4971654;28;19926;-67
2021/06/15 06:56:51;;;;;;;;;;;22.70;96.50;;;;;;4981114;28;19933;-65
2021/06/15 06:59:40;;;;;;;;;;;23.40;94.70;;;;;;4981416;28;20370;-66
2021/06/15 07:02:29;;;;;;;;;;;24.30;92.40;;;;;;4982554;28;19976;-65
2021/06/15 07:05:18;;;;;;;;;;;25.20;90.20;;;;;;4973637;28;19936;-66
2021/06/15 07:08:07;;;;;;;;;;;25.80;84.70;;;;;;4980177;28;19985;-67
2021/06/15 07:10:57;;;;;;;;;;;26.40;82.70;;;;;;4983664;28;20358;-67
2021/06/15 07:13:46;;;;;;;;;;;27.60;76.20;;;;;;4986674;28;19925;-66
2021/06/15 07:16:35;;;;;;;;;;;27.00;72.50;;;;;;4970164;28;20421;-66
2021/06/15 07:19:28;;;;;;;;;;;26.60;72.90;;;;;;4974628;28;19926;-65
2021/06/15 07:22:17;;;;;;;;;;;26.30;73.30;;;;;;4969335;28;20300;-66
2021/06/15 07:25:06;;;;;;;;;;;28.20;69.50;;;;;;4972700;28;19937;-66
2021/06/15 07:27:56;;;;;;;;;;;29.40;65.80;;;;;;4975954;28;20046;-66
2021/06/15 07:30:45;;;;;;;;;;;30.60;61.20;;;;;;4976863;28;20058;-67
2021/06/15 07:33:35;;;;;;;;;;;32.00;55.20;;;;;;4972631;28;19926;-66
2021/06/15 07:36:23;;;;;;;;;;;30.30;56.00;;;;;;4978309;28;19926;-66
2021/06/15 07:39:12;;;;;;;;;;;30.40;58.00;;;;;;4983662;28;19925;-68
2021/06/15 07:45:41;;;;;;;;;;;29.60;51.90;;;;;;4971573;28;19926;-66
2021/06/15 07:48:30;;;;;;;;;;;29.80;50.50;;;;;;4975937;28;19937;-66
2021/06/15 07:51:20;;;;;;;;;;;30.00;50.70;;;;;;4972262;28;20242;-67
2021/06/15 07:54:09;;;;;;;;;;;30.80;48.20;;;;;;4978427;28;20299;-68
2021/06/15 07:56:57;;;;;;;;;;;30.80;48.60;;;;;;4971889;28;20397;-67
2021/06/15 07:59:48;;;;;;;;;;;30.30;50.30;;;;;;4979319;28;19926;-67
2021/06/15 08:02:39;;;;;;;;;;;31.60;50.10;;;;;;4970314;28;19983;-68
2021/06/15 08:05:28;;;;;;;;;;;34.40;44.30;;;;;;4968303;28;19980;-66
2021/06/15 08:08:17;;;;;;;;;;;33.20;43.10;;;;;;4979265;28;20344;-67
2021/06/15 08:11:07;;;;;;;;;;;33.70;44.20;;;;;;4977516;28;19961;-66
2021/06/15 08:13:55;;;;;;;;;;;34.90;40.10;;;;;;4983579;28;20032;-67
2021/06/15 08:16:44;;;;;;;;;;;33.50;41.10;;;;;;4968438;28;19926;-67
2021/06/15 08:19:35;;;;;;;;;;;32.70;43.00;;;;;;4979933;28;20033;-67
2021/06/15 08:22:47;;;;;;;;;;;32.60;44.10;;;;;;4977658;28;19926;-67
2021/06/15 08:25:36;;;;;;;;;;;31.40;44.30;;;;;;4980952;28;19927;-68
2021/06/15 08:28:25;;;;;;;;;;;31.00;45.50;;;;;;4977094;28;20020;-67
2021/06/15 08:31:14;;;;;;;;;;;31.60;45.90;;;;;;4979327;28;20043;-67
2021/06/15 08:34:03;;;;;;;;;;;32.00;44.90;;;;;;4978642;28;19926;-67
2021/06/15 08:36:53;;;;;;;;;;;31.70;44.00;;;;;;4978704;28;19926;-67
2021/06/15 08:39:42;;;;;;;;;;;31.80;44.30;;;;;;4985238;28;19926;-66
2021/06/15 08:42:37;;;;;;;;;;;33.30;42.10;;;;;;4983623;28;20052;-67
2021/06/15 08:45:26;;;;;;;;;;;32.60;43.50;;;;;;4975724;28;20008;-67
2021/06/15 08:48:16;;;;;;;;;;;36.50;39.50;;;;;;4980600;28;19926;-67
2021/06/15 08:51:05;;;;;;;;;;;40.60;33.60;;;;;;4986741;28;19926;-67
2021/06/15 08:54:03;;;;;;;;;;;40.60;30.60;;;;;;4983592;28;19930;-67
2021/06/15 08:56:51;;;;;;;;;;;36.30;32.50;;;;;;4972066;28;19926;-67
2021/06/15 08:59:44;;;;;;;;;;;34.00;35.00;;;;;;4980223;28;19926;-67
2021/06/15 09:02:41;;;;;;;;;;;32.00;39.50;;;;;;4969374;28;20441;-67
2021/06/15 09:05:30;;;;;;;;;;;33.60;38.70;;;;;;4979142;28;20008;-67
2021/06/15 09:08:19;;;;;;;;;;;32.80;40.00;;;;;;4981453;28;20341;-67
2021/06/15 09:11:09;;;;;;;;;;;31.70;41.70;;;;;;4967078;28;19927;-68
2021/06/15 09:13:57;;;;;;;;;;;31.20;44.40;;;;;;4980518;28;19993;-67
2021/06/15 09:16:46;;;;;;;;;;;32.00;44.30;;;;;;4955498;28;20013;-67
2021/06/15 09:19:37;;;;;;;;;;;34.20;41.70;;;;;;4975499;28;19930;-68
2021/06/15 09:22:29;;;;;;;;;;;37.00;36.60;;;;;;4961224;28;19926;-66
2021/06/15 09:25:18;;;;;;;;;;;36.00;37.00;;;;;;4967747;28;20281;-67
2021/06/15 09:28:18;;;;;;;;;;;33.80;37.40;;;;;;4979856;28;19933;-68
2021/06/15 09:31:08;;;;;;;;;;;32.90;39.80;;;;;;4966670;28;19959;-67
2021/06/15 09:34:00;;;;;;;;;;;32.00;42.50;;;;;;4961875;28;20281;-67
2021/06/15 09:36:49;;;;;;;;;;;31.50;43.80;;;;;;4971819;28;19926;-67
2021/06/15 09:39:38;;;;;;;;;;;32.20;42.00;;;;;;4969678;28;20024;-67
2021/06/15 09:45:41;;;;;;;;;;;32.70;40.90;;;;;;4970584;28;19926;-66
2021/06/15 09:48:31;;;;;;;;;;;32.70;42.50;;;;;;4969009;28;20024;-66
2021/06/15 09:51:21;;;;;;;;;;;32.60;41.60;;;;;;4980599;28;20370;-66
2021/06/15 09:54:12;;;;;;;;;;;29.70;44.80;;;;;;4973517;28;19936;-66
2021/06/15 09:57:00;;;;;;;;;;;28.80;47.60;;;;;;4976797;28;19926;-67
2021/06/15 10:00:02;;;;;;;;;;;28.20;49.40;;;;;;4979100;28;19940;-65
2021/06/15 10:02:55;;;;;;;;;;;28.30;48.90;;;;;;4968161;28;19930;-65
2021/06/15 10:05:43;;;;;;;;;;;29.20;48.60;;;;;;4972852;28;19933;-65
2021/06/15 10:08:42;;;;;;;;;;;28.90;48.80;;;;;;4980528;28;19965;-66
2021/06/15 10:11:40;;;;;;;;;;;28.50;49.50;;;;;;4983413;28;19981;-67
2021/06/15 10:14:28;;;;;;;;;;;28.50;49.50;;;;;;4962626;28;20004;-66
2021/06/15 10:17:17;;;;;;;;;;;28.80;49.20;;;;;;4969052;28;19930;-67
2021/06/15 10:20:09;;;;;;;;;;;28.50;49.90;;;;;;4971408;28;20358;-66
2021/06/15 10:22:58;;;;;;;;;;;29.10;49.20;;;;;;4974409;28;19940;-67
2021/06/15 10:25:49;;;;;;;;;;;30.90;45.60;;;;;;4979482;28;19926;-66
2021/06/15 10:28:38;;;;;;;;;;;31.70;43.70;;;;;;4971657;28;19949;-67
2021/06/15 10:31:29;;;;;;;;;;;32.80;43.80;;;;;;4961553;28;20450;-67
2021/06/15 10:34:45;;;;;;;;;;;30.40;46.20;;;;;;4972115;28;19926;-66
2021/06/15 10:37:41;;;;;;;;;;;29.00;50.70;;;;;;4972071;28;20007;-67
2021/06/15 10:40:47;;;;;;;;;;;28.30;50.00;;;;;;4969016;28;20049;-67
2021/06/15 10:43:43;;;;;;;;;;;28.30;51.20;;;;;;4979596;28;19989;-66
2021/06/15 10:46:36;;;;;;;;;;;27.80;51.40;;;;;;4971467;28;20393;-67
2021/06/15 10:49:25;;;;;;;;;;;28.00;52.70;;;;;;4983096;28;19934;-67
2021/06/15 10:52:14;;;;;;;;;;;28.50;52.60;;;;;;4968094;28;19925;-66
2021/06/15 10:55:30;;;;;;;;;;;28.90;51.50;;;;;;4981204;28;19934;-67
2021/06/15 10:58:42;;;;;;;;;;;29.50;49.50;;;;;;4969716;28;19926;-66
2021/06/15 11:01:31;;;;;;;;;;;29.90;49.20;;;;;;4972316;28;20574;-66
2021/06/15 11:04:36;;;;;;;;;;;30.50;48.30;;;;;;4980603;28;19926;-66
2021/06/15 11:07:26;;;;;;;;;;;32.00;45.20;;;;;;4975494;28;19925;-67
2021/06/15 11:10:39;;;;;;;;;;;33.20;43.60;;;;;;4982921;28;19973;-67
2021/06/15 11:13:41;;;;;;;;;;;32.00;44.00;;;;;;4974112;28;20013;-67
2021/06/15 11:16:33;;;;;;;;;;;29.60;48.60;;;;;;4965301;28;19927;-66
2021/06/15 11:19:29;;;;;;;;;;;28.40;48.90;;;;;;4976395;28;20009;-66
2021/06/15 11:22:19;;;;;;;;;;;27.90;52.70;;;;;;4979844;28;19933;-67
2021/06/15 11:25:08;;;;;;;;;;;28.50;51.50;;;;;;4978994;28;20401;-67
2021/06/15 11:27:58;;;;;;;;;;;28.40;50.30;;;;;;4980922;28;19926;-66
2021/06/15 11:30:47;;;;;;;;;;;27.50;53.40;;;;;;4958272;28;19933;-67
2021/06/15 11:33:50;;;;;;;;;;;27.20;53.20;;;;;;4974396;28;19927;-68
2021/06/15 11:36:39;;;;;;;;;;;27.00;52.50;;;;;;4980272;28;19988;-66
2021/06/15 11:39:29;;;;;;;;;;;27.20;54.20;;;;;;4959495;28;19930;-67
2021/06/15 11:42:26;;;;;;;;;;;27.90;51.70;;;;;;4975997;28;20086;-66
2021/06/15 11:45:29;;;;;;;;;;;28.40;51.40;;;;;;4960400;28;19932;-67
2021/06/15 11:48:22;;;;;;;;;;;28.10;52.80;;;;;;4980165;28;20009;-67
2021/06/15 11:51:11;;;;;;;;;;;28.00;51.10;;;;;;4971840;28;19926;-67
2021/06/15 11:54:00;;;;;;;;;;;27.70;52.60;;;;;;4977300;28;20302;-66
2021/06/15 11:56:49;;;;;;;;;;;27.60;52.90;;;;;;4985562;28;20812;-66
2021/06/15 11:59:41;;;;;;;;;;;27.80;53.50;;;;;;4971857;28;19981;-67
2021/06/15 12:02:32;;;;;;;;;;;27.90;52.50;;;;;;4961032;28;19995;-66
2021/06/15 12:05:21;;;;;;;;;;;28.50;50.90;;;;;;4979383;28;19981;-67
2021/06/15 12:08:10;;;;;;;;;;;28.50;50.50;;;;;;4972968;28;20036;-65
2021/06/15 12:10:59;;;;;;;;;;;28.10;50.60;;;;;;4980409;28;20080;-67
2021/06/15 12:13:57;;;;;;;;;;;28.10;51.80;;;;;;4993198;28;19926;-66
2021/06/15 12:17:18;;;;;;;;;;;28.40;51.70;;;;;;4974940;28;19926;-67
2021/06/15 12:20:22;;;;;;;;;;;28.70;51.20;;;;;;4988600;28;20390;-67
2021/06/15 12:23:24;;;;;;;;;;;28.00;53.60;;;;;;4987306;28;19933;-67
2021/06/15 12:26:16;;;;;;;;;;;27.80;53.10;;;;;;4979784;28;20297;-67
2021/06/15 12:29:06;;;;;;;;;;;27.80;53.60;;;;;;4961683;28;19926;-67
2021/06/15 12:31:57;;;;;;;;;;;28.00;52.90;;;;;;4972457;28;19933;-66
2021/06/15 12:34:47;;;;;;;;;;;28.00;53.10;;;;;;4984321;28;20395;-67
2021/06/15 12:37:41;;;;;;;;;;;28.30;53.50;;;;;;4986901;28;20365;-66
2021/06/15 12:40:30;;;;;;;;;;;28.50;52.50;;;;;;4980768;28;20293;-67
2021/06/15 12:43:19;;;;;;;;;;;28.60;52.20;;;;;;4986522;28;19949;-66
2021/06/15 12:46:18;;;;;;;;;;;28.70;51.90;;;;;;4978396;28;19926;-68
2021/06/15 12:49:08;;;;;;;;;;;28.70;52.20;;;;;;4985666;28;19930;-67
2021/06/15 12:51:58;;;;;;;;;;;28.70;51.90;;;;;;4975331;28;19996;-66
2021/06/15 12:54:50;;;;;;;;;;;28.30;52.40;;;;;;4981736;28;19926;-68
2021/06/15 13:00:55;;;;;;;;;;;29.00;52.00;;;;;;4984407;28;19969;-67
2021/06/15 13:03:49;;;;;;;;;;;29.10;51.50;;;;;;4970668;28;19989;-67
2021/06/15 13:06:38;;;;;;;;;;;29.20;50.70;;;;;;4982089;28;19969;-67
2021/06/15 13:09:27;;;;;;;;;;;29.20;50.80;;;;;;4983304;28;19926;-67
2021/06/15 13:12:19;;;;;;;;;;;29.20;49.70;;;;;;4991247;28;19926;-67
2021/06/15 13:15:09;;;;;;;;;;;29.20;50.20;;;;;;4978787;28;19977;-66
2021/06/15 13:18:00;;;;;;;;;;;29.20;50.90;;;;;;4982515;28;20341;-68
2021/06/15 13:20:57;;;;;;;;;;;28.90;51.10;;;;;;4988694;28;19961;-67
2021/06/15 13:23:46;;;;;;;;;;;28.40;51.10;;;;;;4969054;28;19926;-67
2021/06/15 13:26:34;;;;;;;;;;;28.60;51.70;;;;;;4985220;28;19993;-67
2021/06/15 13:29:31;;;;;;;;;;;28.60;50.80;;;;;;4988553;28;19926;-67
2021/06/15 13:32:39;;;;;;;;;;;28.60;51.10;;;;;;4989168;28;19933;-67
2021/06/15 13:35:28;;;;;;;;;;;28.90;51.30;;;;;;4984870;28;19927;-67
2021/06/15 13:38:18;;;;;;;;;;;29.10;50.00;;;;;;4988711;28;19926;-67
2021/06/15 13:41:07;;;;;;;;;;;29.00;50.30;;;;;;4981434;28;20895;-67
2021/06/15 13:43:56;;;;;;;;;;;29.30;50.10;;;;;;4983640;28;19926;-66
2021/06/15 13:46:46;;;;;;;;;;;29.40;48.70;;;;;;4971847;28;19934;-68
2021/06/15 13:52:48;;;;;;;;;;;28.70;50.20;;;;;;4971680;28;19930;-66
2021/06/15 13:55:36;;;;;;;;;;;29.00;49.80;;;;;;4974123;28;19985;-66
2021/06/15 13:58:25;;;;;;;;;;;29.30;48.30;;;;;;4970735;28;19962;-68
2021/06/15 14:01:14;;;;;;;;;;;30.30;47.60;;;;;;4965510;28;19933;-68
2021/06/15 14:04:05;;;;;;;;;;;30.00;45.30;;;;;;4979526;28;19941;-66
2021/06/15 14:06:53;;;;;;;;;;;29.90;48.10;;;;;;4982391;28;19949;-66
2021/06/15 14:09:42;;;;;;;;;;;29.60;47.00;;;;;;4971892;28;20270;-66
2021/06/15 14:12:31;;;;;;;;;;;29.40;47.70;;;;;;4984655;28;19933;-66
2021/06/15 14:15:21;;;;;;;;;;;29.40;48.90;;;;;;4972327;28;20021;-66
2021/06/15 14:18:10;;;;;;;;;;;29.50;48.60;;;;;;4985002;28;20770;-66
2021/06/15 14:21:00;;;;;;;;;;;29.80;49.30;;;;;;4977057;28;20029;-66
2021/06/15 14:23:50;;;;;;;;;;;30.00;48.90;;;;;;4978259;28;19930;-66
2021/06/15 14:26:38;;;;;;;;;;;30.30;48.00;;;;;;4979729;28;19926;-66
2021/06/15 14:29:52;;;;;;;;;;;30.00;46.90;;;;;;4979339;28;19926;-66
2021/06/15 14:32:41;;;;;;;;;;;29.80;47.70;;;;;;4962961;28;20493;-66
2021/06/15 14:35:30;;;;;;;;;;;29.60;48.60;;;;;;4977465;28;19937;-66
2021/06/15 14:38:20;;;;;;;;;;;29.50;49.30;;;;;;4984260;28;19932;-66
2021/06/15 14:41:13;;;;;;;;;;;28.50;48.90;;;;;;4961771;28;19929;-66
2021/06/15 14:44:08;;;;;;;;;;;28.70;49.90;;;;;;4977563;28;20014;-68
2021/06/15 14:46:56;;;;;;;;;;;28.70;49.10;;;;;;4975444;28;19926;-67
2021/06/15 14:49:46;;;;;;;;;;;28.80;49.40;;;;;;4995157;28;20344;-67
2021/06/15 14:52:35;;;;;;;;;;;28.80;50.20;;;;;;4977828;28;19930;-67
2021/06/15 14:55:26;;;;;;;;;;;28.90;49.60;;;;;;4982730;28;19933;-68
2021/06/15 14:58:14;;;;;;;;;;;29.00;47.30;;;;;;4981237;28;20068;-68
2021/06/15 15:01:28;;;;;;;;;;;29.00;48.30;;;;;;4974330;28;20441;-67
2021/06/15 15:04:17;;;;;;;;;;;29.20;46.90;;;;;;4977289;28;19926;-67
2021/06/15 15:07:31;;;;;;;;;;;29.10;45.20;;;;;;4979363;28;19937;-67
2021/06/15 15:10:20;;;;;;;;;;;28.90;46.00;;;;;;4973634;28;19932;-68
2021/06/15 15:13:11;;;;;;;;;;;28.90;46.00;;;;;;4967444;28;19930;-66
2021/06/15 15:16:09;;;;;;;;;;;29.10;44.80;;;;;;4972972;28;20286;-67
2021/06/15 15:19:03;;;;;;;;;;;29.20;45.10;;;;;;4984927;28;20355;-67
2021/06/15 15:21:52;;;;;;;;;;;29.10;43.90;;;;;;4973457;28;19961;-67
2021/06/15 15:24:41;;;;;;;;;;;29.00;43.60;;;;;;4971615;28;19926;-69
2021/06/15 15:27:29;;;;;;;;;;;28.90;44.30;;;;;;4981953;28;19934;-67
2021/06/15 15:30:33;;;;;;;;;;;28.80;44.00;;;;;;4964738;28;20013;-67
2021/06/15 15:33:22;;;;;;;;;;;28.80;44.50;;;;;;4980989;28;20365;-68
2021/06/15 15:36:12;;;;;;;;;;;28.80;44.50;;;;;;4986761;28;19933;-67
2021/06/15 15:39:00;;;;;;;;;;;28.90;45.60;;;;;;4979633;28;19932;-67
2021/06/15 15:41:49;;;;;;;;;;;29.00;45.20;;;;;;4971881;28;20019;-67
2021/06/15 15:44:43;;;;;;;;;;;28.90;44.80;;;;;;4975993;28;19933;-67
2021/06/15 15:47:33;;;;;;;;;;;28.90;44.20;;;;;;4977625;28;19926;-67
2021/06/15 15:50:24;;;;;;;;;;;28.90;44.20;;;;;;4981479;28;19989;-67
2021/06/15 15:53:13;;;;;;;;;;;29.00;44.20;;;;;;4969497;28;19926;-67
2021/06/15 15:56:02;;;;;;;;;;;29.10;44.60;;;;;;4985763;28;20020;-67
2021/06/15 15:58:52;;;;;;;;;;;29.20;43.90;;;;;;4966970;28;19937;-66
2021/06/15 16:01:41;;;;;;;;;;;29.10;42.60;;;;;;4967010;28;19926;-67
2021/06/15 16:04:31;;;;;;;;;;;28.80;43.00;;;;;;4974053;28;19930;-66
2021/06/15 16:07:21;;;;;;;;;;;28.80;44.20;;;;;;4976720;28;19933;-67
2021/06/15 16:10:10;;;;;;;;;;;28.70;44.00;;;;;;4973204;28;19926;-66
2021/06/15 16:12:59;;;;;;;;;;;28.70;44.60;;;;;;4974859;28;19926;-66
2021/06/15 16:15:48;;;;;;;;;;;28.80;47.20;;;;;;4975757;28;19925;-66
2021/06/15 16:18:37;;;;;;;;;;;28.80;47.40;;;;;;4974815;28;19930;-68
2021/06/15 16:21:26;;;;;;;;;;;28.70;48.10;;;;;;4979706;28;20008;-67
2021/06/15 16:24:16;;;;;;;;;;;28.60;46.30;;;;;;4979037;28;19961;-66
2021/06/15 16:27:05;;;;;;;;;;;28.40;47.20;;;;;;4967245;28;20009;-66
2021/06/15 16:29:57;;;;;;;;;;;28.30;47.80;;;;;;4978078;28;19975;-66
2021/06/15 16:33:10;;;;;;;;;;;28.30;48.60;;;;;;4976076;28;20378;-67
2021/06/15 16:35:59;;;;;;;;;;;28.30;49.50;;;;;;4971345;28;19954;-66
2021/06/15 16:38:47;;;;;;;;;;;28.20;49.70;;;;;;4960878;28;21292;-67
2021/06/15 16:41:40;;;;;;;;;;;28.20;50.10;;;;;;4983888;28;20265;-67
2021/06/15 16:44:29;;;;;;;;;;;28.20;50.70;;;;;;4972414;28;20398;-68
2021/06/15 16:47:17;;;;;;;;;;;28.20;49.60;;;;;;4971022;28;20271;-64
2021/06/15 16:50:08;;;;;;;;;;;28.20;49.30;;;;;;4968473;28;19934;-67
2021/06/15 16:52:57;;;;;;;;;;;28.30;52.90;;;;;;4971925;28;19930;-64
2021/06/15 16:55:46;;;;;;;;;;;28.20;52.70;;;;;;4973115;28;19933;-65
2021/06/15 16:58:36;;;;;;;;;;;28.30;51.30;;;;;;4974151;28;19926;-66
2021/06/15 17:01:24;;;;;;;;;;;28.10;52.80;;;;;;4968075;28;19941;-64
2021/06/15 17:04:13;;;;;;;;;;;27.90;51.50;;;;;;4967663;28;19940;-66
2021/06/15 17:07:02;;;;;;;;;;;27.80;52.90;;;;;;4958260;28;20057;-65